Main page
METAR-TAF:

METAR-TAF

Airports :

Gillette–Campbell County Airport

Gillette, Wyoming, United States

latitude: 44-20-22N, longitude: 105-32-31W, elevation: 4362 ft

Current weather observation

The report was made 49 minutes ago, at 12:53 UTC
Wind 12 mph from the West
Temperature 28°F
Humidity 69%
Pressure 30.08 in. Hg
Visibility: 10 miles
Clear sky

METAR: KGCC 231253Z AUTO 27010KT 10SM CLR M02/M07 A3008 RMK AO2 SLP210 T10221067

Time: 06:42 (13:42 UTC)

Forecast

The report was made 2 hours and 22 minutes ago, at 11:20 UTC
Forecast valid from 23 at 12 UTC to 24 at 12 UTC
Wind 10 mph from the West
Visibility: 6 miles
Scattered clouds at a height of 8000 ft
From 23 at 1600 UTC
Wind 17 mph from the North/Northwest with gusts up to 29 mph
Visibility: 6 miles
Scattered clouds at a height of 8000 ft
From 24 at 0000 UTC
Wind 12 mph from the West
Visibility: 6 miles
Scattered clouds at a height of 25000 ft

TAF: KGCC 231120Z 2312/2412 28009KT P6SM SCT080 FM231600 33015G25KT P6SM SCT080 FM240000 27010KT P6SM SCT250

Weather observations and forecasts of more than 4000 airports (METAR and TAF reports).

The available stations are represented by yellow and red dots on the map.

Hover mouse over dot to see the name of the station.

Then click to see weather observations and forecasts.

To change the map : click on the green buttons with a black cross to zoom in, on the green button with a dash to zoom out, or on the green arrows for adjacent maps.


METAR-TAF: